createdAt,value
2023-10-25T00:00:00.149Z,255
2023-10-25T00:05:00.143Z,247.5
2023-10-25T00:10:00.240Z,270
2023-10-25T00:15:00.194Z,265
2023-10-25T00:20:00.207Z,277.5
2023-10-25T00:25:00.250Z,270
2023-10-25T00:30:00.186Z,260
2023-10-25T00:35:00.131Z,285
2023-10-25T00:40:00.188Z,265
2023-10-25T00:45:00.160Z,260
2023-10-25T00:50:00.229Z,255
2023-10-25T00:55:00.220Z,270
2023-10-25T01:00:00.141Z,260
2023-10-25T01:05:00.144Z,275
2023-10-25T01:10:00.278Z,7.5
2023-10-25T01:15:00.141Z,105
2023-10-25T01:20:00.157Z,142.5
2023-10-25T01:25:00.222Z,177.5
2023-10-25T01:30:00.146Z,185
2023-10-25T01:35:00.162Z,197.5
2023-10-25T01:40:00.211Z,205
2023-10-25T01:45:00.184Z,210
2023-10-25T01:50:00.191Z,210
2023-10-25T01:55:00.225Z,207.5
2023-10-25T02:00:00.158Z,210
2023-10-25T02:05:00.189Z,205
2023-10-25T02:10:00.252Z,205
2023-10-25T02:15:00.178Z,172.5
2023-10-25T02:20:00.161Z,125
2023-10-25T02:25:00.304Z,152.5
2023-10-25T02:30:00.164Z,207.5
2023-10-25T02:35:00.162Z,225
2023-10-25T02:40:00.220Z,225
2023-10-25T02:45:00.182Z,225
2023-10-25T02:50:00.162Z,237.5
2023-10-25T02:55:00.219Z,215
2023-10-25T03:00:00.149Z,230
2023-10-25T03:05:00.153Z,225
2023-10-25T03:10:00.205Z,240
2023-10-25T03:15:00.166Z,235
2023-10-25T03:20:00.159Z,245
2023-10-25T03:25:00.302Z,342.5
2023-10-25T03:30:00.142Z,75
2023-10-25T03:35:00.146Z,55
2023-10-25T03:40:00.203Z,115
2023-10-25T03:45:00.166Z,225
2023-10-25T03:50:00.161Z,227.5
2023-10-25T03:55:00.179Z,165
2023-10-25T04:00:00.160Z,195
2023-10-25T04:05:00.149Z,205
2023-10-25T04:10:00.209Z,190
2023-10-25T04:15:00.125Z,200
2023-10-25T04:20:00.159Z,205
2023-10-25T04:25:00.262Z,200
2023-10-25T04:30:00.163Z,190
2023-10-25T04:35:00.191Z,192.5
2023-10-25T04:40:00.174Z,195
2023-10-25T04:45:00.147Z,177.5
2023-10-25T04:50:00.154Z,167.5
2023-10-25T04:55:00.165Z,160
2023-10-25T05:00:00.134Z,140
2023-10-25T05:05:00.137Z,177.5
2023-10-25T05:10:00.185Z,135
2023-10-25T05:15:00.144Z,150
2023-10-25T05:20:00.144Z,192.5
2023-10-25T05:25:00.186Z,170
2023-10-25T05:30:00.201Z,175
2023-10-25T05:35:00.129Z,160
2023-10-25T05:40:00.200Z,172.5
2023-10-25T05:45:00.150Z,177.5
2023-10-25T05:50:00.153Z,190
2023-10-25T05:55:00.182Z,205
2023-10-25T06:00:00.123Z,205
2023-10-25T06:05:01.482Z,197.5
2023-10-25T06:10:00.164Z,205
2023-10-25T06:15:00.125Z,205
2023-10-25T06:20:00.173Z,207.5
2023-10-25T06:25:00.210Z,210
2023-10-25T06:30:00.132Z,217.5
2023-10-25T06:35:00.163Z,212.5
2023-10-25T06:40:00.239Z,215
2023-10-25T06:45:00.136Z,210
2023-10-25T06:50:00.117Z,202.5
2023-10-25T06:55:00.167Z,202.5
2023-10-25T07:00:00.174Z,197.5
2023-10-25T07:05:00.157Z,190
2023-10-25T07:10:00.220Z,190
2023-10-25T07:15:00.156Z,182.5
2023-10-25T07:20:00.122Z,185
2023-10-25T07:25:00.165Z,172.5
2023-10-25T07:30:00.129Z,170
2023-10-25T07:35:00.168Z,167.5
2023-10-25T07:40:00.199Z,132.5
2023-10-25T07:45:00.159Z,122.5
2023-10-25T07:50:00.151Z,165
2023-10-25T07:55:00.210Z,145
2023-10-25T08:00:00.137Z,170
2023-10-25T08:05:00.119Z,125
2023-10-25T08:10:00.134Z,125
2023-10-25T08:15:00.165Z,115
2023-10-25T08:20:00.137Z,115
2023-10-25T08:25:00.125Z,110
2023-10-25T08:30:00.180Z,105
2023-10-25T08:35:00.153Z,95
2023-10-25T08:40:00.164Z,100
2023-10-25T08:45:00.199Z,112.5
2023-10-25T08:50:00.120Z,107.5
2023-10-25T08:55:00.157Z,112.5
2023-10-25T09:00:00.223Z,120
2023-10-25T09:05:00.252Z,135
2023-10-25T09:10:00.140Z,135
2023-10-25T09:15:00.218Z,140
2023-10-25T09:20:00.163Z,120
2023-10-25T09:25:00.162Z,115
2023-10-25T09:30:00.666Z,185
2023-10-25T09:35:00.179Z,170
2023-10-25T09:40:00.142Z,185
2023-10-25T09:45:00.299Z,192.5
2023-10-25T09:50:00.196Z,142.5
2023-10-25T09:55:00.141Z,135
2023-10-25T10:00:00.209Z,145
2023-10-25T10:05:00.116Z,152.5
2023-10-25T10:10:00.177Z,172.5
2023-10-25T10:15:00.176Z,185
2023-10-25T10:20:00.189Z,135
2023-10-25T10:25:00.135Z,185
2023-10-25T10:30:00.198Z,177.5
2023-10-25T10:35:00.178Z,190
2023-10-25T10:40:04.442Z,182.5
2023-10-25T10:45:00.389Z,135
2023-10-25T10:50:00.141Z,137.5
2023-10-25T10:55:00.165Z,165
2023-10-25T11:00:00.198Z,142.5
2023-10-25T11:05:00.133Z,170
2023-10-25T11:10:00.175Z,140
2023-10-25T11:15:00.283Z,187.5
2023-10-25T11:20:00.139Z,165
2023-10-25T11:25:00.150Z,187.5
2023-10-25T11:30:00.179Z,165
2023-10-25T11:35:00.154Z,147.5
2023-10-25T11:40:00.233Z,147.5
2023-10-25T11:45:00.158Z,145
2023-10-25T11:50:00.219Z,127.5
2023-10-25T11:55:00.115Z,137.5
2023-10-25T12:00:00.262Z,147.5
2023-10-25T12:05:00.201Z,137.5
2023-10-25T12:10:00.138Z,150
2023-10-25T12:15:00.220Z,132.5
2023-10-25T12:20:07.518Z,120
2023-10-25T12:25:00.134Z,120
2023-10-25T12:30:00.179Z,125
2023-10-25T12:35:00.145Z,112.5
2023-10-25T12:40:00.131Z,110
2023-10-25T12:45:00.200Z,115
2023-10-25T12:50:00.202Z,120
2023-10-25T12:55:00.154Z,117.5
2023-10-25T13:00:00.157Z,110
2023-10-25T13:05:00.228Z,135
2023-10-25T13:10:00.176Z,115
2023-10-25T13:15:00.158Z,125
2023-10-25T13:20:00.219Z,107.5
2023-10-25T13:25:00.156Z,122.5
2023-10-25T13:30:00.198Z,130
2023-10-25T13:35:00.139Z,127.5
2023-10-25T13:40:00.183Z,125
2023-10-25T13:45:00.159Z,127.5
2023-10-25T13:50:00.180Z,115
2023-10-25T13:55:00.134Z,120
2023-10-25T14:00:00.214Z,132.5
2023-10-25T14:05:00.146Z,117.5
2023-10-25T14:10:00.145Z,127.5
2023-10-25T14:15:00.265Z,127.5
2023-10-25T14:20:00.135Z,130
2023-10-25T14:25:00.146Z,132.5
2023-10-25T14:30:00.179Z,137.5
2023-10-25T14:35:00.159Z,170
2023-10-25T14:40:00.161Z,165
2023-10-25T14:45:00.170Z,155
2023-10-25T14:50:00.148Z,142.5
2023-10-25T14:55:00.126Z,160
2023-10-25T15:00:00.162Z,170
2023-10-25T15:05:00.209Z,175
2023-10-25T15:10:00.162Z,165
2023-10-25T15:15:00.150Z,172.5
2023-10-25T15:20:00.159Z,167.5
2023-10-25T15:25:00.149Z,172.5
2023-10-25T15:30:00.177Z,182.5
2023-10-25T15:35:00.142Z,182.5
2023-10-25T15:40:11.973Z,187.5
2023-10-25T15:45:00.168Z,190
2023-10-25T15:50:00.181Z,190
2023-10-25T15:55:00.128Z,200
2023-10-25T16:00:00.148Z,202.5
2023-10-25T16:05:00.167Z,200
2023-10-25T16:10:00.161Z,220
2023-10-25T16:15:00.172Z,175
2023-10-25T16:20:00.156Z,175
2023-10-25T16:25:01.202Z,170
2023-10-25T16:30:00.225Z,165
2023-10-25T16:35:00.145Z,172.5
2023-10-25T16:40:00.148Z,145
2023-10-25T16:45:00.228Z,150
2023-10-25T16:50:00.149Z,180
2023-10-25T16:55:00.164Z,182.5
2023-10-25T17:00:00.259Z,180
2023-10-25T17:05:00.242Z,185
2023-10-25T17:10:00.154Z,190
2023-10-25T17:15:00.218Z,192.5
2023-10-25T17:20:00.246Z,202.5
2023-10-25T17:25:00.147Z,207.5
2023-10-25T17:30:00.216Z,202.5
2023-10-25T17:35:00.136Z,202.5
2023-10-25T17:40:00.179Z,207.5
2023-10-25T17:45:00.177Z,207.5
2023-10-25T17:50:00.152Z,197.5
2023-10-25T17:55:00.166Z,200
2023-10-25T18:00:00.187Z,197.5
2023-10-25T18:05:00.135Z,217.5
2023-10-25T18:10:00.180Z,215
2023-10-25T18:15:00.176Z,307.5
2023-10-25T18:20:00.157Z,295
2023-10-25T18:25:00.137Z,242.5
2023-10-25T18:30:07.510Z,217.5
2023-10-25T18:35:00.393Z,205
2023-10-25T18:40:00.112Z,215
2023-10-25T18:45:00.148Z,230
2023-10-25T18:50:00.159Z,237.5
2023-10-25T18:55:00.130Z,270
2023-10-25T19:00:00.164Z,260
2023-10-25T19:06:24.476Z,220
2023-10-25T19:15:00.182Z,212.5
2023-10-25T19:20:11.499Z,215
2023-10-25T19:25:00.153Z,250
2023-10-25T19:30:00.534Z,245
2023-10-25T19:35:00.160Z,207.5
2023-10-25T19:40:00.172Z,215
2023-10-25T19:45:00.175Z,210
2023-10-25T19:50:00.180Z,190
2023-10-25T19:55:00.130Z,157.5
2023-10-25T20:00:00.262Z,155
2023-10-25T20:05:00.148Z,135
2023-10-25T20:10:00.172Z,135
2023-10-25T20:15:00.169Z,155
2023-10-25T20:20:00.151Z,140
2023-10-25T20:25:01.297Z,182.5
2023-10-25T20:30:00.144Z,190
2023-10-25T20:35:00.121Z,215
2023-10-25T20:40:00.133Z,222.5
2023-10-25T20:45:00.155Z,212.5
2023-10-25T20:50:00.204Z,220
2023-10-25T20:55:00.123Z,227.5
2023-10-25T21:00:00.172Z,225
2023-10-25T21:05:00.188Z,235
2023-10-25T21:10:00.204Z,240
2023-10-25T21:15:00.202Z,242.5
2023-10-25T21:20:00.161Z,255
2023-10-25T21:25:00.121Z,235
2023-10-25T21:30:00.180Z,235
2023-10-25T21:35:00.131Z,237.5
2023-10-25T21:40:00.142Z,235
2023-10-25T21:45:00.124Z,232.5
2023-10-25T21:50:00.121Z,237.5
2023-10-25T21:55:00.158Z,242.5
2023-10-25T22:00:00.213Z,245
2023-10-25T22:05:00.241Z,255
2023-10-25T22:10:00.163Z,265
2023-10-25T22:15:00.210Z,260
2023-10-25T22:20:00.167Z,267.5
2023-10-25T22:25:00.205Z,250
2023-10-25T22:30:00.309Z,250
2023-10-25T22:35:00.143Z,242.5
2023-10-25T22:40:00.168Z,255
2023-10-25T22:45:00.202Z,255
2023-10-25T22:50:00.190Z,255
2023-10-25T22:55:00.170Z,252.5
2023-10-25T23:00:00.186Z,247.5
2023-10-25T23:05:00.226Z,252.5
2023-10-25T23:10:00.119Z,230
2023-10-25T23:15:00.197Z,225
2023-10-25T23:20:00.157Z,230
2023-10-25T23:25:00.155Z,225
2023-10-25T23:30:00.167Z,230
2023-10-25T23:35:00.143Z,222.5
2023-10-25T23:40:00.158Z,235
2023-10-25T23:45:00.191Z,227.5
2023-10-25T23:50:00.155Z,235
2023-10-25T23:55:00.267Z,242.5
